Time,TemperatureF,DewpointF,PressureIn,WindDirection,WindDirectionDegrees,WindSpeedMPH,WindSpeedGustMPH,Humidity,HourlyPrecipIn,Conditions,Clouds,dailyrainin,SolarRadiationWatts/m^2,SoftwareType,DateUTC
2013-09-29 04:42:00,51.0,39.0,30.04,NNE,24,0.0,-999.0,62,0.00,,,-99.99,0.400000,,2013-09-29 11:42:00,
2013-09-29 08:45:00,50.0,40.0,30.03,SE,131,0.0,-999.0,68,0.00,,,-99.99,17.200001,,2013-09-29 15:45:00,
2013-09-29 09:00:00,60.0,44.0,30.05,South,182,1.0,-999.0,56,0.00,,,-99.99,89.099998,,2013-09-29 16:00:00,
2013-09-29 09:44:00,60.0,44.0,30.05,South,182,1.0,-999.0,56,0.00,,,-99.99,89.099998,,2013-09-29 16:44:00,
2013-09-29 09:54:00,60.0,44.0,30.05,South,182,1.0,-999.0,56,0.00,,,-99.99,89.099998,,2013-09-29 16:54:00,
2013-09-29 10:00:00,65.0,45.0,30.08,SW,227,2.0,-999.0,49,0.00,,,-99.99,406.899994,,2013-09-29 17:00:00,
2013-09-29 10:43:00,65.0,45.0,30.08,SW,227,2.0,-999.0,49,0.00,,,-99.99,406.899994,,2013-09-29 17:43:00,
2013-09-29 10:52:00,65.0,45.0,30.08,SW,227,2.0,-999.0,49,0.00,,,-99.99,406.899994,,2013-09-29 17:52:00,
2013-09-29 11:00:00,68.0,46.0,30.09,SW,231,2.0,-999.0,45,0.00,,,-99.99,609.500000,,2013-09-29 18:00:00,
2013-09-29 11:42:00,68.0,46.0,30.09,SW,231,2.0,-999.0,45,0.00,,,-99.99,609.500000,,2013-09-29 18:42:00,
2013-09-29 11:52:00,68.0,46.0,30.09,SW,231,2.0,-999.0,45,0.00,,,-99.99,609.500000,,2013-09-29 18:52:00,
2013-09-29 12:00:00,71.0,44.0,30.09,SSE,156,3.0,-999.0,38,0.00,,,-99.99,688.400024,,2013-09-29 19:00:00,
2013-09-29 12:42:00,71.0,44.0,30.09,SSE,156,3.0,-999.0,38,0.00,,,-99.99,688.400024,,2013-09-29 19:42:00,
2013-09-29 12:52:00,71.0,44.0,30.09,SSE,156,3.0,-999.0,38,0.00,,,-99.99,688.400024,,2013-09-29 19:52:00,
2013-09-29 13:00:00,72.0,44.0,30.08,SSW,192,2.0,-999.0,37,0.00,,,-99.99,767.299988,,2013-09-29 20:00:00,
2013-09-29 13:43:00,72.0,44.0,30.08,SSW,192,2.0,-999.0,37,0.00,,,-99.99,767.299988,,2013-09-29 20:43:00,
2013-09-29 13:52:00,72.0,44.0,30.08,SSW,192,2.0,-999.0,37,0.00,,,-99.99,767.299988,,2013-09-29 20:52:00,
2013-09-29 14:00:00,72.0,43.0,30.07,SW,226,2.0,-999.0,34,0.00,,,-99.99,594.900024,,2013-09-29 21:00:00,
2013-09-29 14:44:00,72.0,43.0,30.07,SW,226,2.0,-999.0,34,0.00,,,-99.99,594.900024,,2013-09-29 21:44:00,
2013-09-29 14:55:00,72.0,43.0,30.07,SW,226,2.0,-999.0,34,0.00,,,-99.99,594.900024,,2013-09-29 21:55:00,
2013-09-29 15:00:00,74.0,47.0,30.05,South,186,3.0,-999.0,39,0.00,,,-99.99,674.599976,,2013-09-29 22:00:00,
2013-09-29 15:43:00,74.0,47.0,30.05,South,186,3.0,-999.0,39,0.00,,,-99.99,674.599976,,2013-09-29 22:43:00,
2013-09-29 15:53:00,74.0,47.0,30.05,South,186,3.0,-999.0,39,0.00,,,-99.99,674.599976,,2013-09-29 22:53:00,
2013-09-29 17:00:00,69.0,52.0,30.03,WSW,247,3.0,-999.0,54,0.00,,,-99.99,122.800003,,2013-09-30 00:00:00,
2013-09-29 17:42:00,69.0,52.0,30.03,WSW,247,3.0,-999.0,54,0.00,,,-99.99,122.800003,,2013-09-30 00:42:00,
2013-09-29 17:52:00,69.0,52.0,30.03,WSW,247,3.0,-999.0,54,0.00,,,-99.99,122.800003,,2013-09-30 00:52:00,
2013-09-29 18:00:00,67.0,53.0,30.03,South,182,1.0,-999.0,59,0.00,,,-99.99,51.500000,,2013-09-30 01:00:00,
2013-09-29 18:42:00,67.0,53.0,30.03,South,182,1.0,-999.0,59,0.00,,,-99.99,51.500000,,2013-09-30 01:42:00,
2013-09-29 18:52:00,67.0,53.0,30.03,South,182,1.0,-999.0,59,0.00,,,-99.99,51.500000,,2013-09-30 01:52:00,
2013-09-29 19:00:00,63.0,53.0,30.03,South,186,0.0,-999.0,68,0.00,,,-99.99,14.300000,,2013-09-30 02:00:00,
2013-09-29 19:42:00,63.0,53.0,30.03,South,186,0.0,-999.0,68,0.00,,,-99.99,14.300000,,2013-09-30 02:42:00,
2013-09-29 19:52:00,63.0,53.0,30.03,South,186,0.0,-999.0,68,0.00,,,-99.99,14.300000,,2013-09-30 02:52:00,
2013-09-29 20:00:00,59.0,52.0,30.05,North,0,0.0,-999.0,77,0.00,,,-99.99,-2.200000,,2013-09-30 03:00:00,
2013-09-29 20:45:00,59.0,52.0,30.05,North,0,0.0,-999.0,77,0.00,,,-99.99,-2.200000,,2013-09-30 03:45:00,
2013-09-29 20:55:00,59.0,52.0,30.05,North,0,0.0,-999.0,77,0.00,,,-99.99,-2.200000,,2013-09-30 03:55:00,
2013-09-29 23:00:00,57.0,52.0,30.06,NNE,30,0.0,-999.0,83,0.00,,,-99.99,0.600000,,2013-09-30 06:00:00,
2013-09-29 23:42:00,57.0,52.0,30.06,NNE,30,0.0,-999.0,83,0.00,,,-99.99,0.600000,,2013-09-30 06:42:00,
2013-09-29 23:52:00,57.0,52.0,30.06,NNE,30,0.0,-999.0,83,0.00,,,-99.99,0.600000,,2013-09-30 06:52:00,